Sunday, April 22, 2018, 5:54 PM EDT
Back to Local

KDAW, Skyhaven Airport

Location: Rochester, NH, United States Lat: 43.283
Local Time: 5:54 PM EDT (21:54 GMT) Lon: -70.917
Time Zone: US/Eastern Elev: 321 ft

Show me the last for .
Show Decoded

2018-04-22 16:51 METAR KDAW 222051Z AUTO 34010KT 10SM CLR 15/M09 A3028 RMK AO2 SLP252 T01501089
                 56008 =
2018-04-22 15:51 METAR KDAW 221951Z AUTO 32010KT 10SM CLR 16/M09 A3028 RMK AO2 SLP253 T01561094 =
2018-04-22 14:51 METAR KDAW 221851Z AUTO 31013G18KT 10SM CLR 15/M09 A3029 RMK AO2 SLP255
                 T01501089 =
2018-04-22 13:51 METAR KDAW 221751Z AUTO 33011KT 300V010 10SM CLR 14/M08 A3030 RMK AO2 SLP260
                 T01441083 10144 20067 57007 =
2018-04-22 12:51 METAR KDAW 221651Z AUTO 34007KT 10SM CLR 13/M08 A3031 RMK AO2 SLP261 T01331078 =
2018-04-22 11:51 METAR KDAW 221551Z AUTO 33011G16KT 10SM CLR 12/M08 A3032 RMK AO2 SLP266
                 T01221083 =
2018-04-22 10:51 METAR KDAW 221451Z AUTO 34010G16KT 310V010 10SM CLR 12/M08 A3032 RMK AO2 SLP267
                 T01171083 50000 =
2018-04-22 09:51 METAR KDAW 221351Z AUTO 30011G19KT 10SM CLR 10/M08 A3032 RMK AO2 SLP267
                 T01001078 =
2018-04-22 08:51 METAR KDAW 221251Z AUTO 33007KT 10SM CLR 09/M04 A3033 RMK AO2 SLP268 T00891044 =
2018-04-22 07:51 METAR KDAW 221151Z AUTO 29006KT 10SM CLR 07/M06 A3032 RMK AO2 SLP267 T00671056
                 10067 21017 51011 =
2018-04-22 06:51 METAR KDAW 221051Z AUTO 32007KT 10SM CLR 02/M04 A3032 RMK AO2 SLP265 T00171039 =
2018-04-22 05:51 METAR KDAW 220951Z AUTO 30004KT 10SM CLR M01/M05 A3030 RMK AO2 SLP259 T10061050
                 =
2018-04-22 04:51 METAR KDAW 220851Z AUTO 32006KT 10SM CLR M01/M04 A3029 RMK AO2 SLP257 T10111044
                 53001 =
2018-04-22 03:51 METAR KDAW 220751Z AUTO VRB03KT 10SM CLR 03/M06 A3029 RMK AO2 SLP255 T00281056 =
2018-04-22 02:51 METAR KDAW 220651Z AUTO VRB04KT 10SM CLR 04/M06 A3028 RMK AO2 SLP254 T00391056 =
2018-04-22 01:51 METAR KDAW 220551Z AUTO VRB03KT 10SM CLR 03/M05 A3029 RMK AO2 SLP254 T00281050
                 10094 20022 50001 =
2018-04-22 00:51 METAR KDAW 220451Z AUTO 00000KT 10SM CLR 03/M06 A3029 RMK AO2 SLP256 T00331056
                 401390011 =
2018-04-21 23:51 METAR KDAW 220351Z AUTO 00000KT 10SM CLR 04/M06 A3029 RMK AO2 SLP255 T00391056 =
2018-04-21 22:51 METAR KDAW 220251Z AUTO 29004KT 10SM CLR 07/M06 A3028 RMK AO2 SLP253 T00671061
                 51016 =
2018-04-21 21:51 METAR KDAW 220151Z AUTO 00000KT 10SM CLR 07/M07 A3028 RMK AO2 SLP251 T00721067 =
2018-04-21 20:51 METAR KDAW 220051Z AUTO 32004KT 10SM CLR 08/M07 A3026 RMK AO2 SLP246 T00831067 =
2018-04-21 19:51 METAR KDAW 212351Z AUTO 33005KT 10SM CLR 09/M07 A3023 RMK AO2 SLP237 T00941072
                 10139 20089 53021 =
2018-04-21 18:51 METAR KDAW 212251Z AUTO 32010G18KT 10SM CLR 11/M07 A3020 RMK AO2 SLP226
                 T01111067 =

Support USWX by starting your Amazon purchase here.